Delta Virtual Airport Information Service

Austin Bergstrom International Airport

ICAO: KAUS Country: United States
Latitude: 30.1945 Longitude: -97.6698
Latest Arrival : AAL1014 (KLAX-KAUS) Latest Departure : AAL1176 (B) (KAUS-KDFW)


WX CaptureLIVE
Data provided by noaa.gov | Fetched at 09:27:43

METAR : KAUS 041353Z 10003KT 10SM FEW110 SCT150 BKN300 27/22 A3004 RMK AO2 SLP163 T02670222 $

TAF : KAUS 041136Z 0412/0518 VRB03KT P6SM VCSH BKN100 BKN250 FM041500 15005KT P6SM FEW120 SCT250


Runway Data for KAUS
Data provided by openaviationdata.com

Runway ID Mag Var Hdg Length Elevation Surface ILS Freq ILS Id ILS Slope
17L 6 172° 9022 ft 494 ft Concrete 110.5 IVNK 3
17R 6 172° 12278 ft 494 ft Concrete 110.3 IGFQ 3
35L 6 352° 12278 ft 494 ft Concrete 110.3 IBSM 3
35R 6 352° 9022 ft 494 ft Concrete 110.5 IHCE 3

Austin Bergstrom International Airport, United States
Use only for reference purposes



Not for navigational purposes.